createdAt,value
2018-09-11T00:00:27.334Z,8.70
2018-09-11T00:01:02.922Z,9.60
2018-09-11T00:01:38.546Z,8.80
2018-09-11T00:02:13.987Z,8.30
2018-09-11T00:02:49.439Z,8.20
2018-09-11T00:03:24.877Z,8.10
2018-09-11T00:03:59.961Z,7.60
2018-09-11T00:04:35.602Z,8.10
2018-09-11T00:05:11.229Z,8.10
2018-09-11T00:05:46.583Z,8.80
2018-09-11T00:06:21.887Z,8.80
2018-09-11T00:06:57.204Z,9.20
2018-09-11T00:07:32.863Z,8.30
2018-09-11T00:08:08.262Z,8.60
2018-09-11T00:08:43.387Z,8.80
2018-09-11T00:09:18.578Z,8.30
2018-09-11T00:09:54.006Z,8.40
2018-09-11T00:10:29.219Z,8.30
2018-09-11T00:11:04.636Z,8.90
2018-09-11T00:11:39.942Z,9.00
2018-09-11T00:12:15.062Z,8.90
2018-09-11T00:12:50.206Z,10.00
2018-09-11T00:13:25.329Z,10.20
2018-09-11T00:14:00.411Z,9.60
2018-09-11T00:14:35.923Z,9.30
2018-09-11T00:15:11.109Z,9.50
2018-09-11T00:15:46.653Z,10.20
2018-09-11T00:16:21.867Z,10.10
2018-09-11T00:16:57.480Z,9.30
2018-09-11T00:17:32.723Z,9.30
2018-09-11T00:18:08.147Z,9.60
2018-09-11T00:18:43.471Z,9.30
2018-09-11T00:19:18.973Z,8.70
2018-09-11T00:19:54.302Z,9.10
2018-09-11T00:20:29.716Z,8.10
2018-09-11T00:21:04.992Z,8.70
2018-09-11T00:21:40.410Z,9.00
2018-09-11T00:22:15.923Z,8.10
2018-09-11T00:22:51.444Z,7.60
2018-09-11T00:23:26.768Z,8.10
2018-09-11T00:24:02.183Z,9.70
2018-09-11T00:24:37.813Z,10.20
2018-09-11T00:25:13.117Z,8.90
2018-09-11T00:25:48.430Z,8.80
2018-09-11T00:26:23.659Z,9.30
2018-09-11T00:26:59.183Z,9.00
2018-09-11T00:27:34.512Z,9.50
2018-09-11T00:28:09.913Z,9.80
2018-09-11T00:28:45.676Z,9.00
2018-09-11T00:29:20.999Z,8.40
2018-09-11T00:29:56.432Z,8.90
2018-09-11T00:30:32.079Z,8.90
2018-09-11T00:31:07.498Z,10.40
2018-09-11T00:31:42.841Z,10.30
2018-09-11T00:32:18.255Z,9.50
2018-09-11T00:32:53.472Z,10.30
2018-09-11T00:33:28.794Z,10.30
2018-09-11T00:34:04.139Z,9.50
2018-09-11T00:34:39.376Z,9.40
2018-09-11T00:35:14.567Z,9.60
2018-09-11T00:35:50.196Z,9.90
2018-09-11T00:36:25.367Z,10.30
2018-09-11T00:37:00.577Z,10.20
2018-09-11T00:37:36.034Z,10.30
2018-09-11T00:38:11.325Z,10.70
2018-09-11T00:38:46.744Z,10.50
2018-09-11T00:39:22.232Z,9.80
2018-09-11T00:39:57.473Z,10.00
2018-09-11T00:40:32.982Z,10.30
2018-09-11T00:41:08.481Z,10.30
2018-09-11T00:41:43.693Z,10.60
2018-09-11T00:42:19.119Z,10.70
2018-09-11T00:42:54.454Z,11.00
2018-09-11T00:43:29.993Z,10.30
2018-09-11T00:44:05.237Z,9.80
2018-09-11T00:44:40.594Z,11.20
2018-09-11T00:45:15.679Z,11.20
2018-09-11T00:45:51.294Z,10.40
2018-09-11T00:46:26.821Z,10.50
2018-09-11T00:47:02.679Z,11.00
2018-09-11T00:47:38.127Z,10.50
2018-09-11T00:48:13.316Z,11.80
2018-09-11T00:48:48.945Z,11.70
2018-09-11T00:49:24.085Z,10.70
2018-09-11T00:49:59.434Z,11.60
2018-09-11T00:50:34.878Z,11.70
2018-09-11T00:51:10.106Z,12.40
2018-09-11T00:51:45.661Z,13.10
2018-09-11T00:52:20.834Z,12.80
2018-09-11T00:52:56.084Z,11.80
2018-09-11T00:53:31.395Z,12.10
2018-09-11T00:54:07.040Z,11.60
2018-09-11T00:54:42.523Z,11.30
2018-09-11T00:55:18.129Z,12.00
2018-09-11T00:55:53.498Z,11.90
2018-09-11T00:56:28.948Z,11.10
2018-09-11T00:57:04.443Z,11.90
2018-09-11T00:57:39.893Z,12.50
2018-09-11T00:58:15.222Z,12.40
2018-09-11T00:58:50.450Z,11.30
2018-09-11T00:59:26.146Z,11.60
2018-09-11T01:00:01.452Z,12.30
2018-09-11T01:00:36.806Z,12.50
2018-09-11T01:01:12.021Z,12.10
2018-09-11T01:01:47.516Z,12.50
2018-09-11T01:02:23.265Z,12.60
2018-09-11T01:02:58.536Z,11.70
2018-09-11T01:03:33.914Z,11.80
2018-09-11T01:04:09.312Z,11.40
2018-09-11T01:04:44.666Z,12.00
2018-09-11T01:05:20.252Z,12.30
2018-09-11T01:05:55.906Z,12.60
2018-09-11T01:06:31.528Z,12.80
2018-09-11T01:07:06.778Z,11.70
2018-09-11T01:07:42.032Z,11.80
2018-09-11T01:08:17.333Z,11.60
2018-09-11T01:08:52.678Z,12.00
2018-09-11T01:09:27.991Z,12.60
2018-09-11T01:10:03.520Z,12.80
2018-09-11T01:10:38.910Z,12.10
2018-09-11T01:11:14.563Z,12.40
2018-09-11T01:11:50.107Z,12.60
2018-09-11T01:12:25.161Z,12.40
2018-09-11T01:13:00.349Z,12.20
2018-09-11T01:13:35.573Z,12.00
2018-09-11T01:14:10.967Z,12.50
2018-09-11T01:14:46.453Z,12.60
2018-09-11T01:15:21.664Z,12.30
2018-09-11T01:15:56.846Z,13.10
2018-09-11T01:16:32.381Z,12.80
2018-09-11T01:17:07.476Z,12.00
2018-09-11T01:17:42.994Z,11.70
2018-09-11T01:18:18.018Z,12.50
2018-09-11T01:18:53.512Z,12.40
2018-09-11T01:19:28.875Z,13.60
2018-09-11T01:20:03.959Z,13.10
2018-09-11T01:20:39.362Z,12.20
2018-09-11T01:21:14.510Z,12.50
2018-09-11T01:21:49.937Z,12.50
2018-09-11T01:22:25.479Z,12.40
2018-09-11T01:23:00.872Z,11.60
2018-09-11T01:23:36.083Z,12.00
2018-09-11T01:24:11.576Z,12.70
2018-09-11T01:24:47.110Z,13.40
2018-09-11T01:25:22.418Z,13.00
2018-09-11T01:25:57.981Z,11.90
2018-09-11T01:26:33.441Z,12.00
2018-09-11T01:27:08.540Z,12.70
2018-09-11T01:27:44.060Z,12.60
2018-09-11T01:28:19.255Z,14.20
2018-09-11T01:28:54.872Z,14.30
2018-09-11T01:29:30.420Z,12.60
2018-09-11T01:30:05.702Z,12.70
2018-09-11T01:30:40.812Z,12.90
2018-09-11T01:31:16.111Z,12.60
2018-09-11T01:31:51.645Z,12.50
2018-09-11T01:32:27.065Z,12.20
2018-09-11T01:33:02.248Z,11.80
2018-09-11T01:33:37.815Z,13.10
2018-09-11T01:34:13.122Z,13.00
2018-09-11T01:34:48.446Z,12.60
2018-09-11T01:35:24.172Z,13.20
2018-09-11T01:35:59.562Z,13.50
2018-09-11T01:36:34.683Z,12.70
2018-09-11T01:37:10.046Z,12.50
2018-09-11T01:37:45.578Z,13.00
2018-09-11T01:38:20.802Z,13.10
2018-09-11T01:38:56.003Z,12.80
2018-09-11T01:39:31.112Z,13.40
2018-09-11T01:40:06.797Z,13.10
2018-09-11T01:40:42.229Z,12.90
2018-09-11T01:41:17.628Z,13.30
2018-09-11T01:41:53.152Z,14.00
2018-09-11T01:42:28.524Z,13.60
2018-09-11T01:43:03.924Z,13.80
2018-09-11T01:43:39.378Z,13.60
2018-09-11T01:44:14.776Z,13.00
2018-09-11T01:44:50.141Z,13.30
2018-09-11T01:45:25.827Z,14.00
2018-09-11T01:46:01.889Z,14.20
2018-09-11T01:46:37.184Z,14.20
2018-09-11T01:47:12.589Z,14.40
2018-09-11T01:47:48.043Z,13.80
2018-09-11T01:48:23.491Z,13.60
2018-09-11T01:48:59.048Z,13.30
2018-09-11T01:49:34.680Z,13.70
2018-09-11T01:50:10.184Z,14.50
2018-09-11T01:50:45.629Z,14.30
2018-09-11T01:51:20.820Z,14.60
2018-09-11T01:51:55.860Z,14.40
2018-09-11T01:52:31.109Z,13.20
2018-09-11T01:53:06.432Z,13.70
2018-09-11T01:53:41.860Z,13.70
2018-09-11T01:54:17.384Z,13.30
2018-09-11T01:54:52.744Z,14.50
2018-09-11T01:55:28.465Z,13.50
2018-09-11T01:56:03.592Z,13.20
2018-09-11T01:56:38.899Z,12.50
2018-09-11T01:57:14.500Z,13.10
2018-09-11T01:57:49.651Z,13.80
2018-09-11T01:58:25.073Z,13.60
2018-09-11T01:59:00.565Z,13.50
2018-09-11T01:59:35.908Z,14.20
2018-09-11T02:00:11.336Z,14.60
2018-09-11T02:00:46.612Z,13.60
2018-09-11T02:01:22.100Z,13.90
2018-09-11T02:01:57.429Z,14.80
2018-09-11T02:02:32.917Z,13.40
2018-09-11T02:03:08.171Z,14.20
2018-09-11T02:03:43.716Z,14.90
2018-09-11T02:04:19.068Z,14.60
2018-09-11T02:04:54.478Z,15.30
2018-09-11T02:05:29.591Z,14.20
2018-09-11T02:06:04.802Z,14.30
2018-09-11T02:06:40.035Z,14.30
2018-09-11T02:07:15.461Z,14.10
2018-09-11T02:07:50.800Z,13.30
2018-09-11T02:08:26.245Z,13.90
2018-09-11T02:09:01.787Z,14.90
2018-09-11T02:09:37.384Z,14.70
2018-09-11T02:10:12.793Z,14.50
2018-09-11T02:10:48.408Z,12.40
2018-09-11T02:11:24.256Z,13.30
2018-09-11T02:11:59.487Z,13.70
2018-09-11T02:12:34.793Z,13.70
2018-09-11T02:13:09.938Z,13.60
2018-09-11T02:13:45.618Z,14.20
2018-09-11T02:14:20.973Z,13.10
2018-09-11T02:14:56.561Z,14.00
2018-09-11T02:15:32.143Z,14.20
2018-09-11T02:16:07.479Z,14.10
2018-09-11T02:16:43.077Z,13.40
2018-09-11T02:17:18.322Z,12.90
2018-09-11T02:17:54.566Z,13.30
2018-09-11T02:18:30.285Z,14.20
2018-09-11T02:19:05.881Z,14.30
2018-09-11T02:19:41.146Z,14.10
2018-09-11T02:20:16.172Z,14.30
2018-09-11T02:20:51.800Z,14.50
2018-09-11T02:21:27.021Z,14.20
2018-09-11T02:22:02.368Z,14.60
2018-09-11T02:22:37.651Z,14.90
2018-09-11T02:23:12.868Z,14.50
2018-09-11T02:23:48.084Z,14.80
2018-09-11T02:24:23.423Z,15.50
2018-09-11T02:24:58.781Z,14.80
2018-09-11T02:25:33.979Z,15.40
2018-09-11T02:26:09.198Z,14.50
2018-09-11T02:26:44.510Z,13.30
2018-09-11T02:27:19.662Z,13.90
2018-09-11T02:27:55.187Z,14.10
2018-09-11T02:28:30.592Z,14.00
2018-09-11T02:29:05.930Z,14.50
2018-09-11T02:29:41.175Z,14.20
2018-09-11T02:30:16.553Z,14.20
2018-09-11T02:30:51.857Z,14.40
2018-09-11T02:31:27.314Z,13.50
2018-09-11T02:32:02.652Z,13.50
2018-09-11T02:32:37.678Z,14.00
2018-09-11T02:33:13.047Z,13.00
2018-09-11T02:33:48.446Z,13.90
2018-09-11T02:34:23.779Z,14.40
2018-09-11T02:34:59.129Z,14.10
2018-09-11T02:35:34.495Z,13.90
2018-09-11T02:36:10.003Z,13.20
2018-09-11T02:36:45.140Z,13.40
2018-09-11T02:37:20.702Z,13.40
2018-09-11T02:37:56.060Z,13.10
2018-09-11T02:38:31.551Z,12.50
2018-09-11T02:39:06.890Z,12.80
2018-09-11T02:39:42.404Z,13.00
2018-09-11T02:40:17.483Z,12.40
2018-09-11T02:40:52.842Z,12.70
2018-09-11T02:41:28.055Z,13.70
2018-09-11T02:42:03.489Z,13.40
2018-09-11T02:42:38.890Z,12.10
2018-09-11T02:43:14.112Z,12.20
2018-09-11T02:43:49.529Z,13.90
2018-09-11T02:44:24.848Z,14.50
2018-09-11T02:45:00.387Z,12.90
2018-09-11T02:45:35.807Z,12.90
2018-09-11T02:46:11.375Z,13.80
2018-09-11T02:46:46.760Z,13.60
2018-09-11T02:47:22.802Z,14.50
2018-09-11T02:47:58.328Z,13.50
2018-09-11T02:48:33.653Z,13.30
2018-09-11T02:49:09.107Z,13.90
2018-09-11T02:49:44.627Z,13.40
2018-09-11T02:50:19.766Z,13.00
2018-09-11T02:50:55.193Z,13.00
2018-09-11T02:51:30.657Z,13.50
2018-09-11T02:52:06.004Z,13.50
2018-09-11T02:52:41.497Z,13.20
2018-09-11T02:53:16.724Z,12.90
2018-09-11T02:53:51.796Z,12.70
2018-09-11T02:54:27.144Z,12.60
2018-09-11T02:55:02.643Z,12.40
2018-09-11T02:55:37.967Z,13.10
2018-09-11T02:56:13.165Z,13.10
2018-09-11T02:56:48.740Z,12.00
2018-09-11T02:57:23.964Z,11.30
2018-09-11T02:57:59.376Z,12.00
2018-09-11T02:58:34.707Z,12.00
2018-09-11T02:59:10.002Z,12.40
2018-09-11T02:59:45.443Z,12.70
2018-09-11T03:00:20.999Z,11.70
2018-09-11T03:00:56.321Z,12.00
2018-09-11T03:01:31.622Z,12.10
2018-09-11T03:02:07.194Z,12.30
2018-09-11T03:02:42.908Z,13.30
2018-09-11T03:03:18.328Z,12.60
2018-09-11T03:03:53.721Z,12.00
2018-09-11T03:04:29.263Z,12.90
2018-09-11T03:05:04.756Z,12.50
2018-09-11T03:05:40.220Z,12.80
2018-09-11T03:06:15.735Z,11.10
2018-09-11T03:06:51.644Z,11.00
2018-09-11T03:07:27.111Z,11.70
2018-09-11T03:08:02.335Z,12.00
2018-09-11T03:08:38.837Z,11.90
2018-09-11T03:09:14.133Z,11.50
2018-09-11T03:09:49.112Z,11.40
2018-09-11T03:10:24.351Z,11.80
2018-09-11T03:11:00.050Z,11.90
2018-09-11T03:11:35.786Z,11.50
2018-09-11T03:12:11.176Z,11.60
2018-09-11T03:12:46.860Z,10.60
2018-09-11T03:13:22.202Z,10.30
2018-09-11T03:13:57.833Z,11.40
2018-09-11T03:14:33.143Z,12.00
2018-09-11T03:15:08.642Z,11.60
2018-09-11T03:15:43.788Z,11.10
2018-09-11T03:16:19.408Z,11.00
2018-09-11T03:16:54.597Z,10.50
2018-09-11T03:17:29.958Z,10.60
2018-09-11T03:18:05.181Z,10.60
2018-09-11T03:18:40.346Z,10.60
2018-09-11T03:19:15.506Z,11.60
2018-09-11T03:19:50.720Z,12.00
2018-09-11T03:20:25.963Z,10.70
2018-09-11T03:21:01.085Z,10.70
2018-09-11T03:21:36.392Z,10.10
2018-09-11T03:22:11.703Z,11.50
2018-09-11T03:22:47.038Z,11.80
2018-09-11T03:23:22.396Z,10.30
2018-09-11T03:23:57.796Z,9.50
2018-09-11T03:24:33.127Z,9.80
2018-09-11T03:25:08.653Z,10.70
2018-09-11T03:25:43.999Z,11.10
2018-09-11T03:26:19.313Z,10.20
2018-09-11T03:26:54.517Z,10.10
2018-09-11T03:27:30.360Z,10.90
2018-09-11T03:28:05.972Z,11.10
2018-09-11T03:28:41.022Z,10.90
2018-09-11T03:29:16.361Z,11.00
2018-09-11T03:29:51.655Z,11.00
2018-09-11T03:30:27.007Z,10.40
2018-09-11T03:31:02.225Z,10.60
2018-09-11T03:31:37.621Z,10.50
2018-09-11T03:32:12.854Z,11.00
2018-09-11T03:32:48.590Z,10.70
2018-09-11T03:33:24.207Z,10.90
2018-09-11T03:33:59.826Z,10.30
2018-09-11T03:34:35.068Z,10.20
2018-09-11T03:35:10.397Z,10.10
2018-09-11T03:35:45.827Z,10.70
2018-09-11T03:36:21.457Z,10.90
2018-09-11T03:36:56.647Z,11.20
2018-09-11T03:37:32.273Z,11.30
2018-09-11T03:38:07.665Z,11.70
2018-09-11T03:38:42.966Z,11.50
2018-09-11T03:39:18.290Z,10.80
2018-09-11T03:39:53.549Z,11.40
2018-09-11T03:40:28.864Z,11.30
2018-09-11T03:41:04.399Z,11.30
2018-09-11T03:41:39.719Z,10.70
2018-09-11T03:42:15.426Z,12.10
2018-09-11T03:42:51.157Z,11.90
2018-09-11T03:43:26.409Z,11.60
2018-09-11T03:44:01.826Z,11.30
2018-09-11T03:44:37.090Z,10.30
2018-09-11T03:45:12.277Z,11.30
2018-09-11T03:45:47.698Z,11.60
2018-09-11T03:46:22.897Z,11.60
2018-09-11T03:46:58.516Z,11.90
2018-09-11T03:47:33.937Z,11.20
2018-09-11T03:48:09.252Z,12.20
2018-09-11T03:48:44.700Z,11.80
2018-09-11T03:49:19.924Z,11.70
2018-09-11T03:49:55.270Z,10.70
2018-09-11T03:50:30.826Z,11.60
2018-09-11T03:51:05.865Z,11.00
2018-09-11T03:51:41.168Z,11.20
2018-09-11T03:52:16.396Z,11.30
2018-09-11T03:52:52.063Z,11.50
2018-09-11T03:53:27.540Z,11.40
2018-09-11T03:54:02.951Z,11.50
2018-09-11T03:54:38.058Z,11.60
2018-09-11T03:55:13.256Z,11.90
2018-09-11T03:55:48.546Z,12.40
2018-09-11T03:56:23.892Z,11.40
2018-09-11T03:56:59.405Z,10.60
2018-09-11T03:57:34.805Z,11.90
2018-09-11T03:58:10.432Z,11.60
2018-09-11T03:58:45.650Z,11.00
2018-09-11T03:59:21.086Z,11.20
2018-09-11T03:59:56.311Z,11.40
2018-09-11T04:00:31.787Z,10.30
2018-09-11T04:01:07.108Z,10.40
2018-09-11T04:01:42.424Z,11.50
2018-09-11T04:02:18.319Z,10.90
2018-09-11T04:02:53.563Z,10.30
2018-09-11T04:03:28.853Z,10.80
2018-09-11T04:04:04.489Z,10.50
2018-09-11T04:04:39.709Z,10.90
2018-09-11T04:05:14.955Z,10.70
2018-09-11T04:05:50.380Z,10.50
2018-09-11T04:06:26.218Z,11.00
2018-09-11T04:07:01.429Z,10.60
2018-09-11T04:07:36.642Z,10.00
2018-09-11T04:08:11.962Z,10.30
2018-09-11T04:08:47.286Z,11.70
2018-09-11T04:09:22.489Z,11.50
2018-09-11T04:09:57.996Z,10.00
2018-09-11T04:10:33.331Z,10.60
2018-09-11T04:11:08.777Z,11.40
2018-09-11T04:11:44.231Z,10.60
2018-09-11T04:12:19.632Z,10.10
2018-09-11T04:12:54.975Z,8.90
2018-09-11T04:13:30.278Z,9.40
2018-09-11T04:14:05.621Z,10.00
2018-09-11T04:14:40.874Z,9.60
2018-09-11T04:15:16.313Z,9.60
2018-09-11T04:15:51.572Z,9.70
2018-09-11T04:16:27.246Z,9.50
2018-09-11T04:17:02.370Z,10.40
2018-09-11T04:17:38.108Z,9.90
2018-09-11T04:18:13.490Z,8.80
2018-09-11T04:18:49.305Z,9.10
2018-09-11T04:19:24.810Z,8.90
2018-09-11T04:20:00.082Z,9.50
2018-09-11T04:20:35.428Z,9.20
2018-09-11T04:21:10.727Z,8.80
2018-09-11T04:21:46.108Z,9.20
2018-09-11T04:22:21.392Z,8.90
2018-09-11T04:22:56.795Z,9.20
2018-09-11T04:23:31.826Z,9.10
2018-09-11T04:24:07.493Z,8.60
2018-09-11T04:24:42.812Z,8.60
2018-09-11T04:25:17.801Z,9.30
2018-09-11T04:25:53.044Z,9.60
2018-09-11T04:26:28.245Z,8.30
2018-09-11T04:27:03.569Z,8.20
2018-09-11T04:27:39.193Z,8.70
2018-09-11T04:28:14.374Z,9.00
2018-09-11T04:28:49.896Z,9.10
2018-09-11T04:29:25.207Z,8.30
2018-09-11T04:30:00.929Z,8.30
2018-09-11T04:30:36.175Z,8.50
2018-09-11T04:31:11.482Z,8.00
2018-09-11T04:31:46.936Z,8.50
2018-09-11T04:32:22.672Z,8.70
2018-09-11T04:32:58.101Z,8.40
2018-09-11T04:33:33.527Z,8.60
2018-09-11T04:34:09.064Z,8.00
2018-09-11T04:34:44.215Z,7.80
2018-09-11T04:35:19.412Z,8.40
2018-09-11T04:35:54.864Z,9.00
2018-09-11T04:36:30.259Z,8.60
2018-09-11T04:37:05.388Z,7.30
2018-09-11T04:37:40.651Z,7.30
2018-09-11T04:38:15.673Z,7.10
2018-09-11T04:38:51.213Z,7.80
2018-09-11T04:39:26.422Z,8.20
2018-09-11T04:40:01.917Z,8.20
2018-09-11T04:40:38.421Z,7.50
2018-09-11T04:41:13.924Z,8.10
2018-09-11T04:41:49.260Z,7.90
2018-09-11T04:42:24.663Z,6.90
2018-09-11T04:43:00.333Z,7.40
2018-09-11T04:43:35.647Z,7.60
2018-09-11T04:44:11.029Z,7.60
2018-09-11T04:44:46.476Z,7.90
2018-09-11T04:45:21.669Z,7.10
2018-09-11T04:45:56.991Z,7.00
2018-09-11T04:46:32.320Z,7.50
2018-09-11T04:47:07.957Z,7.50
2018-09-11T04:47:43.413Z,7.60
2018-09-11T04:48:18.819Z,7.60
2018-09-11T04:48:53.983Z,7.00
2018-09-11T04:49:29.300Z,6.70
2018-09-11T04:50:04.703Z,7.00
2018-09-11T04:50:40.029Z,7.30
2018-09-11T04:51:15.749Z,6.90
2018-09-11T04:51:51.067Z,7.20
2018-09-11T04:52:26.459Z,6.90
2018-09-11T04:53:02.187Z,7.20
2018-09-11T04:53:37.998Z,7.30
2018-09-11T04:54:13.190Z,7.70
2018-09-11T04:54:48.423Z,7.60
2018-09-11T04:55:23.839Z,7.40
2018-09-11T04:55:59.450Z,6.90
2018-09-11T04:56:34.703Z,6.90
2018-09-11T04:57:09.940Z,6.90
2018-09-11T04:57:45.459Z,7.00
2018-09-11T04:58:20.696Z,7.10
2018-09-11T04:58:55.962Z,7.50
2018-09-11T04:59:31.252Z,7.50
2018-09-11T05:00:06.865Z,7.30
2018-09-11T05:00:44.179Z,7.20
2018-09-11T05:01:19.485Z,6.90
2018-09-11T05:01:54.713Z,7.70
2018-09-11T05:02:30.228Z,7.20
2018-09-11T05:03:05.337Z,6.60
2018-09-11T05:03:40.754Z,6.40
2018-09-11T05:04:15.968Z,7.10
2018-09-11T05:04:51.503Z,6.80
2018-09-11T05:05:26.816Z,6.20
2018-09-11T05:06:02.068Z,6.90
2018-09-11T05:06:37.688Z,7.10
2018-09-11T05:07:13.009Z,6.90
2018-09-11T05:07:48.756Z,6.30
2018-09-11T05:08:24.066Z,6.70
2018-09-11T05:08:59.504Z,6.80
2018-09-11T05:09:35.146Z,6.50
2018-09-11T05:10:10.358Z,6.50
2018-09-11T05:10:45.652Z,6.80
2018-09-11T05:11:21.369Z,6.90
2018-09-11T05:11:56.897Z,6.90
2018-09-11T05:12:32.209Z,6.70
2018-09-11T05:13:07.540Z,6.70
2018-09-11T05:13:42.644Z,7.20
2018-09-11T05:14:18.038Z,7.20
2018-09-11T05:14:53.482Z,6.90
2018-09-11T05:15:28.994Z,6.80
2018-09-11T05:16:04.315Z,6.30
2018-09-11T05:16:39.568Z,5.90
2018-09-11T05:17:15.059Z,6.30
2018-09-11T05:17:50.374Z,6.90
2018-09-11T05:18:25.507Z,6.80
2018-09-11T05:19:01.061Z,6.90
2018-09-11T05:19:36.561Z,6.60
2018-09-11T05:20:12.177Z,6.30
2018-09-11T05:20:47.625Z,6.20
2018-09-11T05:21:22.738Z,6.40
2018-09-11T05:21:58.055Z,6.10
2018-09-11T05:22:33.619Z,6.40
2018-09-11T05:23:08.925Z,6.50
2018-09-11T05:23:44.550Z,6.40
2018-09-11T05:24:19.752Z,6.00
2018-09-11T05:24:54.980Z,5.90
2018-09-11T05:25:30.320Z,6.50
2018-09-11T05:26:06.064Z,6.40
2018-09-11T05:26:41.502Z,6.20
2018-09-11T05:27:17.120Z,6.30
2018-09-11T05:27:52.587Z,5.80
2018-09-11T05:28:28.212Z,5.80
2018-09-11T05:29:03.562Z,6.60
2018-09-11T05:29:39.006Z,7.20
2018-09-11T05:30:14.219Z,7.00
2018-09-11T05:30:49.670Z,6.10
2018-09-11T05:31:25.065Z,5.40
2018-09-11T05:32:00.621Z,5.30
2018-09-11T05:32:36.274Z,5.80
2018-09-11T05:33:11.879Z,5.60
2018-09-11T05:33:47.499Z,5.80
2018-09-11T05:34:22.836Z,6.10
2018-09-11T05:34:58.321Z,5.70
2018-09-11T05:35:33.676Z,5.90
2018-09-11T05:36:08.908Z,6.20
2018-09-11T05:36:44.641Z,6.60
2018-09-11T05:37:20.351Z,6.60
2018-09-11T05:37:55.803Z,6.20
2018-09-11T05:38:31.228Z,5.90
2018-09-11T05:39:06.959Z,6.00
2018-09-11T05:39:42.111Z,6.00
2018-09-11T05:40:17.510Z,5.60
2018-09-11T05:40:53.040Z,6.40
2018-09-11T05:41:28.498Z,6.00
2018-09-11T05:42:04.028Z,5.80
2018-09-11T05:42:39.554Z,5.40
2018-09-11T05:43:14.798Z,6.00
2018-09-11T05:43:50.428Z,5.70
2018-09-11T05:44:25.811Z,6.00
2018-09-11T05:45:01.342Z,5.70
2018-09-11T05:45:37.275Z,6.50
2018-09-11T05:46:12.697Z,5.80
2018-09-11T05:46:48.428Z,5.30
2018-09-11T05:47:23.838Z,4.90
2018-09-11T05:47:58.950Z,5.30
2018-09-11T05:48:34.357Z,5.70
2018-09-11T05:49:09.787Z,5.20
2018-09-11T05:49:45.306Z,5.10
2018-09-11T05:50:20.624Z,5.00
2018-09-11T05:50:56.066Z,4.80
2018-09-11T05:51:31.185Z,5.70
2018-09-11T05:52:06.238Z,6.00
2018-09-11T05:52:41.615Z,5.40
2018-09-11T05:53:17.127Z,4.80
2018-09-11T05:53:52.460Z,4.90
2018-09-11T05:54:28.159Z,5.40
2018-09-11T05:55:03.784Z,5.20
2018-09-11T05:55:39.316Z,5.10
2018-09-11T05:56:14.710Z,5.30
2018-09-11T05:56:50.042Z,5.20
2018-09-11T05:57:25.556Z,5.40
2018-09-11T05:58:01.004Z,4.50
2018-09-11T05:58:36.471Z,4.60
2018-09-11T05:59:11.583Z,5.10
2018-09-11T05:59:46.846Z,5.00
2018-09-11T06:00:22.033Z,5.20
2018-09-11T06:00:57.466Z,4.90
2018-09-11T06:01:32.780Z,4.60
2018-09-11T06:02:08.984Z,5.10
2018-09-11T06:02:44.337Z,5.00
2018-09-11T06:03:19.739Z,4.80
2018-09-11T06:03:55.100Z,4.60
2018-09-11T06:04:30.519Z,4.90
2018-09-11T06:05:05.747Z,4.80
2018-09-11T06:05:41.284Z,5.40
2018-09-11T06:06:16.672Z,5.10
2018-09-11T06:06:52.218Z,4.90
2018-09-11T06:07:27.422Z,4.50
2018-09-11T06:08:03.072Z,5.20
2018-09-11T06:08:38.836Z,5.10
2018-09-11T06:09:14.452Z,4.30
2018-09-11T06:09:49.590Z,4.10
2018-09-11T06:10:25.007Z,4.90
2018-09-11T06:11:00.355Z,5.20
2018-09-11T06:11:35.980Z,4.70
2018-09-11T06:12:11.508Z,4.90
2018-09-11T06:12:46.913Z,5.60
2018-09-11T06:13:22.531Z,5.40
2018-09-11T06:13:58.113Z,4.50
2018-09-11T06:14:33.726Z,4.70
2018-09-11T06:15:09.448Z,5.30
2018-09-11T06:15:44.976Z,5.20
2018-09-11T06:16:20.411Z,5.10
2018-09-11T06:16:55.761Z,5.20
2018-09-11T06:17:31.163Z,5.20
2018-09-11T06:18:06.585Z,4.50
2018-09-11T06:18:42.039Z,4.70
2018-09-11T06:19:17.354Z,5.00
2018-09-11T06:19:52.771Z,5.00
2018-09-11T06:20:28.124Z,4.90
2018-09-11T06:21:03.463Z,5.00
2018-09-11T06:21:39.217Z,4.90
2018-09-11T06:22:14.549Z,4.70
2018-09-11T06:22:49.808Z,4.80
2018-09-11T06:23:25.010Z,5.10
2018-09-11T06:24:00.352Z,5.00
2018-09-11T06:24:35.675Z,5.10
2018-09-11T06:25:11.098Z,4.90
2018-09-11T06:25:46.431Z,5.10
2018-09-11T06:26:21.747Z,5.00
2018-09-11T06:26:56.981Z,4.80
2018-09-11T06:27:32.277Z,5.10
2018-09-11T06:28:07.506Z,5.70
2018-09-11T06:28:42.833Z,5.50
2018-09-11T06:29:18.735Z,4.90
2018-09-11T06:29:54.078Z,5.60
2018-09-11T06:30:29.591Z,5.10
2018-09-11T06:31:04.940Z,5.80
2018-09-11T06:31:40.362Z,5.60
2018-09-11T06:32:15.699Z,5.40
2018-09-11T06:32:51.242Z,4.90
2018-09-11T06:33:26.459Z,4.50
2018-09-11T06:34:01.719Z,4.90
2018-09-11T06:34:37.388Z,5.20
2018-09-11T06:35:12.919Z,5.10
2018-09-11T06:35:48.176Z,4.90
2018-09-11T06:36:23.375Z,4.90
2018-09-11T06:36:58.659Z,5.70
2018-09-11T06:37:33.974Z,6.10
2018-09-11T06:38:09.171Z,4.70
2018-09-11T06:38:44.483Z,4.90
2018-09-11T06:39:19.702Z,5.30
2018-09-11T06:39:55.144Z,5.50
2018-09-11T06:40:30.471Z,5.50
2018-09-11T06:41:05.828Z,4.90
2018-09-11T06:41:41.043Z,5.10
2018-09-11T06:42:16.578Z,5.90
2018-09-11T06:42:51.998Z,5.30
2018-09-11T06:43:27.507Z,5.30
2018-09-11T06:44:03.019Z,5.80
2018-09-11T06:44:38.241Z,5.10
2018-09-11T06:45:14.006Z,4.60
2018-09-11T06:45:49.326Z,5.00
2018-09-11T06:46:24.861Z,4.70
2018-09-11T06:47:00.633Z,5.20
2018-09-11T06:47:35.748Z,5.50
2018-09-11T06:48:11.236Z,5.70
2018-09-11T06:48:46.565Z,4.90
2018-09-11T06:49:21.963Z,4.70
2018-09-11T06:49:57.577Z,4.90
2018-09-11T06:50:32.818Z,4.80
2018-09-11T06:51:08.414Z,5.10
2018-09-11T06:51:44.510Z,5.70
2018-09-11T06:52:19.715Z,5.50
2018-09-11T06:52:55.137Z,5.00
2018-09-11T06:53:30.221Z,5.50
2018-09-11T06:54:05.751Z,5.70
2018-09-11T06:54:41.082Z,5.10
2018-09-11T06:55:16.640Z,4.50
2018-09-11T06:55:52.037Z,5.20
2018-09-11T06:56:27.660Z,5.20
2018-09-11T06:57:02.985Z,4.80
2018-09-11T06:57:38.241Z,4.80
2018-09-11T06:58:13.960Z,5.20
2018-09-11T06:58:49.403Z,5.30
2018-09-11T06:59:24.946Z,5.00
2018-09-11T07:00:00.180Z,4.80
2018-09-11T07:00:35.581Z,4.80
2018-09-11T07:01:11.153Z,4.90
2018-09-11T07:01:46.520Z,4.60
2018-09-11T07:02:21.915Z,5.20
2018-09-11T07:02:57.260Z,6.00
2018-09-11T07:03:32.761Z,6.20
2018-09-11T07:04:08.278Z,5.90
2018-09-11T07:04:43.693Z,4.90
2018-09-11T07:05:19.035Z,5.20
2018-09-11T07:05:54.491Z,5.30
2018-09-11T07:06:29.920Z,4.90
2018-09-11T07:07:05.369Z,4.90
2018-09-11T07:07:40.871Z,4.70
2018-09-11T07:08:16.118Z,4.80
2018-09-11T07:08:51.659Z,4.50
2018-09-11T07:09:26.760Z,4.60
2018-09-11T07:10:02.274Z,4.90
2018-09-11T07:10:37.720Z,5.00
2018-09-11T07:11:13.163Z,4.80
2018-09-11T07:11:48.645Z,4.50
2018-09-11T07:12:24.062Z,4.50
2018-09-11T07:12:59.418Z,4.50
2018-09-11T07:13:34.636Z,4.20
2018-09-11T07:14:09.939Z,4.70
2018-09-11T07:14:45.385Z,4.60
2018-09-11T07:15:20.692Z,5.00
2018-09-11T07:15:56.057Z,4.70
2018-09-11T07:16:31.352Z,4.00
2018-09-11T07:17:06.714Z,4.30
2018-09-11T07:17:42.057Z,4.20
2018-09-11T07:18:17.370Z,4.20
2018-09-11T07:18:52.690Z,4.50
2018-09-11T07:19:28.445Z,4.70
2018-09-11T07:20:04.128Z,4.30
2018-09-11T07:20:39.174Z,4.30
2018-09-11T07:21:14.359Z,4.60
2018-09-11T07:21:49.480Z,4.20
2018-09-11T07:22:24.947Z,4.20
2018-09-11T07:23:00.238Z,5.10
2018-09-11T07:23:35.486Z,5.20
2018-09-11T07:24:10.700Z,4.40
2018-09-11T07:24:46.037Z,4.50
2018-09-11T07:25:21.525Z,4.70
2018-09-11T07:25:56.782Z,4.40
2018-09-11T07:26:32.323Z,4.30
2018-09-11T07:27:07.543Z,4.40
2018-09-11T07:27:43.195Z,4.30
2018-09-11T07:28:18.839Z,4.40
2018-09-11T07:28:54.363Z,4.60
2018-09-11T07:29:29.776Z,4.50
2018-09-11T07:30:05.207Z,4.60
2018-09-11T07:30:40.448Z,4.30
2018-09-11T07:31:16.108Z,4.20
2018-09-11T07:31:51.502Z,4.50
2018-09-11T07:32:26.832Z,4.20
2018-09-11T07:33:02.077Z,4.50
2018-09-11T07:33:37.423Z,4.90
2018-09-11T07:34:12.854Z,4.50
2018-09-11T07:34:48.288Z,4.80
2018-09-11T07:35:23.777Z,5.40
2018-09-11T07:35:59.409Z,5.10
2018-09-11T07:36:34.726Z,4.90
2018-09-11T07:37:10.145Z,4.70
2018-09-11T07:37:45.779Z,4.40
2018-09-11T07:38:21.102Z,4.30
2018-09-11T07:38:56.540Z,4.50
2018-09-11T07:39:31.851Z,4.20
2018-09-11T07:40:07.072Z,4.10
2018-09-11T07:40:42.409Z,4.40
2018-09-11T07:41:17.844Z,4.50
2018-09-11T07:41:53.196Z,3.70
2018-09-11T07:42:28.406Z,4.00
2018-09-11T07:43:03.625Z,4.00
2018-09-11T07:43:38.865Z,3.90
2018-09-11T07:44:14.167Z,3.70